createdAt,value
2018-08-23T00:04:08.686Z,18.10
2018-08-23T00:09:11.682Z,17.90
2018-08-23T00:14:15.370Z,17.90
2018-08-23T00:19:18.383Z,17.90
2018-08-23T00:24:23.354Z,17.80
2018-08-23T00:29:28.737Z,17.70
2018-08-23T00:34:32.998Z,17.70
2018-08-23T00:39:36.002Z,17.70
2018-08-23T00:44:56.678Z,17.60
2018-08-23T00:50:00.116Z,17.60
2018-08-23T00:55:15.458Z,17.50
2018-08-23T01:00:19.983Z,17.50
2018-08-23T01:05:28.412Z,17.40
2018-08-23T01:10:31.419Z,17.30
2018-08-23T01:15:34.417Z,17.30
2018-08-23T01:20:37.758Z,17.20
2018-08-23T01:25:42.016Z,17.20
2018-08-23T01:30:45.868Z,17.10
2018-08-23T01:35:50.019Z,17.10
2018-08-23T01:40:53.833Z,17.00
2018-08-23T01:45:56.840Z,16.90
2018-08-23T01:50:59.834Z,16.90
2018-08-23T01:56:02.840Z,16.90
2018-08-23T02:01:14.089Z,16.80
2018-08-23T02:06:17.090Z,16.80
2018-08-23T02:11:20.094Z,16.70
2018-08-23T02:16:23.159Z,16.70
2018-08-23T02:21:26.164Z,16.70
2018-08-23T02:26:29.174Z,16.70
2018-08-23T02:31:32.169Z,16.70
2018-08-23T02:36:35.185Z,16.70
2018-08-23T02:41:40.811Z,16.60
2018-08-23T02:46:43.913Z,16.60
2018-08-23T02:51:51.037Z,16.50
2018-08-23T02:56:56.766Z,16.40
2018-08-23T03:01:59.749Z,16.40
2018-08-23T03:07:04.229Z,16.40
2018-08-23T03:12:07.692Z,16.40
2018-08-23T03:17:12.223Z,16.40
2018-08-23T03:22:15.234Z,16.30
2018-08-23T03:27:18.237Z,16.30
2018-08-23T03:32:21.233Z,16.20
2018-08-23T03:37:24.330Z,16.10
2018-08-23T03:42:27.606Z,16.10
2018-08-23T03:47:36.454Z,16.10
2018-08-23T03:52:40.372Z,16.00
2018-08-23T03:57:48.773Z,16.00
2018-08-23T04:02:51.761Z,16.00
2018-08-23T04:07:54.757Z,15.90
2018-08-23T04:12:57.745Z,15.90
2018-08-23T04:18:09.094Z,15.80
2018-08-23T04:23:12.093Z,15.80
2018-08-23T04:28:15.098Z,15.80
2018-08-23T04:33:18.082Z,15.80
2018-08-23T04:38:21.085Z,15.80
2018-08-23T04:43:24.154Z,15.90
2018-08-23T04:48:27.081Z,15.90
2018-08-23T04:53:30.091Z,15.90
2018-08-23T04:58:33.090Z,16.00
2018-08-23T05:03:36.090Z,16.10
2018-08-23T05:08:39.089Z,16.30
2018-08-23T05:13:42.115Z,16.60
2018-08-23T05:18:45.215Z,16.80
2018-08-23T05:23:48.209Z,17.10
2018-08-23T05:29:02.405Z,17.30
2018-08-23T05:34:06.671Z,17.50
2018-08-23T05:39:09.889Z,17.80
2018-08-23T05:44:18.349Z,18.10
2018-08-23T05:49:21.365Z,18.40
2018-08-23T05:54:24.356Z,18.80
2018-08-23T05:59:27.361Z,19.20
2018-08-23T06:04:39.070Z,19.60
2018-08-23T06:09:42.601Z,20.00
2018-08-23T06:14:45.626Z,20.50
2018-08-23T06:19:48.629Z,21.00
2018-08-23T06:24:51.637Z,21.40
2018-08-23T06:29:54.634Z,21.90
2018-08-23T06:34:57.637Z,22.50
2018-08-23T06:40:00.621Z,23.00
2018-08-23T06:45:03.626Z,23.50
2018-08-23T06:50:06.637Z,24.00
2018-08-23T06:55:14.210Z,24.60
2018-08-23T07:00:22.773Z,25.00
2018-08-23T07:05:25.788Z,25.30
2018-08-23T07:10:28.794Z,25.80
2018-08-23T07:15:31.794Z,26.20
2018-08-23T07:20:34.814Z,26.60
2018-08-23T07:25:44.283Z,27.30
2018-08-23T07:30:47.301Z,27.90
2018-08-23T07:36:01.373Z,28.50
2018-08-23T07:41:04.363Z,29.10
2018-08-23T07:46:07.438Z,29.70
2018-08-23T07:51:27.481Z,30.20
2018-08-23T07:56:30.474Z,30.80
2018-08-23T08:01:34.450Z,31.40
2018-08-23T08:06:38.031Z,31.80
2018-08-23T08:11:47.460Z,32.40
2018-08-23T08:16:50.495Z,32.90
2018-08-23T08:21:53.515Z,33.30
2018-08-23T08:26:56.517Z,33.90
2018-08-23T08:31:59.530Z,34.40
2018-08-23T08:37:02.538Z,34.90
2018-08-23T08:42:05.546Z,35.30
2018-08-23T08:47:08.545Z,35.50
2018-08-23T08:52:11.545Z,35.80
2018-08-23T08:57:14.594Z,36.00
2018-08-23T09:02:17.556Z,36.40
2018-08-23T09:07:23.458Z,36.80
2018-08-23T09:12:26.470Z,36.70
2018-08-23T09:17:38.233Z,36.70
2018-08-23T09:22:54.193Z,37.20
2018-08-23T09:27:57.175Z,37.50
2018-08-23T09:33:05.449Z,37.90
2018-08-23T09:38:12.173Z,38.00
2018-08-23T09:43:15.190Z,37.50
2018-08-23T09:48:18.200Z,37.30
2018-08-23T09:53:23.254Z,36.90
2018-08-23T09:58:31.777Z,36.60
2018-08-23T10:03:40.314Z,36.20
2018-08-23T10:08:48.719Z,36.00
2018-08-23T10:13:57.349Z,35.90
2018-08-23T10:19:05.642Z,35.80
2018-08-23T10:24:16.154Z,35.80
2018-08-23T10:29:19.142Z,36.20
2018-08-23T10:34:22.140Z,36.30
2018-08-23T10:39:25.138Z,36.30
2018-08-23T10:44:28.147Z,36.40
2018-08-23T10:49:31.154Z,36.40
2018-08-23T10:54:34.156Z,36.40
2018-08-23T10:59:37.165Z,36.40
2018-08-23T11:04:40.170Z,36.60
2018-08-23T11:09:48.764Z,36.90
2018-08-23T11:14:51.693Z,37.30
2018-08-23T11:20:00.097Z,37.70
2018-08-23T11:25:03.114Z,37.90
2018-08-23T11:30:06.109Z,38.30
2018-08-23T11:35:09.131Z,38.50
2018-08-23T11:40:12.127Z,38.70
2018-08-23T11:45:15.129Z,38.80
2018-08-23T11:50:18.121Z,39.00
2018-08-23T11:55:21.118Z,39.20
2018-08-23T12:00:24.114Z,39.20
2018-08-23T12:05:27.097Z,39.20
2018-08-23T12:10:30.105Z,39.20
2018-08-23T12:15:33.465Z,39.10
2018-08-23T12:20:36.441Z,39.10
2018-08-23T12:25:39.448Z,39.10
2018-08-23T12:30:42.747Z,39.00
2018-08-23T12:35:45.752Z,39.00
2018-08-23T12:40:54.162Z,39.10
2018-08-23T12:46:00.455Z,38.90
2018-08-23T12:51:03.433Z,38.50
2018-08-23T12:56:06.444Z,38.50
2018-08-23T13:01:09.449Z,38.00
2018-08-23T13:06:12.565Z,37.90
2018-08-23T13:11:15.592Z,38.20
2018-08-23T13:16:18.572Z,38.30
2018-08-23T13:21:21.601Z,38.40
2018-08-23T13:26:28.874Z,38.50
2018-08-23T13:31:31.874Z,38.30
2018-08-23T13:36:34.981Z,37.90
2018-08-23T13:41:37.960Z,38.00
2018-08-23T13:46:40.946Z,37.50
2018-08-23T13:51:43.929Z,37.10
2018-08-23T13:56:47.006Z,37.10
2018-08-23T14:01:50.017Z,36.70
2018-08-23T14:06:53.063Z,37.40
2018-08-23T14:11:56.037Z,38.20
2018-08-23T14:16:59.518Z,38.60
2018-08-23T14:22:02.529Z,38.70
2018-08-23T14:27:05.557Z,38.40
2018-08-23T14:32:08.554Z,38.10
2018-08-23T14:37:11.554Z,38.00
2018-08-23T14:42:14.557Z,37.70
2018-08-23T14:47:22.994Z,37.40
2018-08-23T14:52:26.006Z,37.30
2018-08-23T14:57:31.908Z,37.00
2018-08-23T15:02:34.901Z,36.50
2018-08-23T15:07:38.035Z,36.20
2018-08-23T15:12:40.994Z,35.90
2018-08-23T15:17:44.005Z,35.50
2018-08-23T15:22:47.836Z,35.10
2018-08-23T16:33:36.701Z,31.10
2018-08-23T16:38:39.824Z,31.50
2018-08-23T16:43:43.083Z,31.80
2018-08-23T16:49:06.776Z,31.90
2018-08-23T16:54:10.044Z,32.00
2018-08-23T16:59:16.394Z,31.90
2018-08-23T17:04:19.834Z,31.80
2018-08-23T17:09:23.347Z,31.70
2018-08-23T17:14:26.749Z,31.50
2018-08-23T17:19:30.040Z,31.30
2018-08-23T17:24:35.405Z,31.20
2018-08-23T17:29:39.502Z,31.10
2018-08-23T17:34:44.644Z,31.00
2018-08-23T17:39:52.603Z,30.70
2018-08-23T17:44:56.472Z,30.40
2018-08-23T17:49:59.902Z,30.20
2018-08-23T17:55:03.239Z,30.10
2018-08-23T18:00:08.129Z,29.90
2018-08-23T18:05:15.807Z,29.70
2018-08-23T18:10:20.046Z,29.70
2018-08-23T18:15:27.946Z,29.60
2018-08-23T18:20:35.030Z,29.50
2018-08-23T18:25:38.973Z,29.50
2018-08-23T18:30:47.464Z,29.40
2018-08-23T18:35:51.063Z,29.40
2018-08-23T18:40:55.679Z,29.30
2018-08-23T18:45:58.878Z,29.20
2018-08-23T18:51:02.150Z,29.10
2018-08-23T18:56:05.393Z,29.10
2018-08-23T19:01:12.847Z,29.00
2018-08-23T19:06:16.143Z,28.80
2018-08-23T19:11:20.509Z,28.70
2018-08-23T19:16:28.923Z,28.60
2018-08-23T19:21:34.382Z,28.50
2018-08-23T19:26:37.687Z,28.40
2018-08-23T19:31:41.959Z,28.30
2018-08-23T19:36:49.038Z,28.20
2018-08-23T19:41:56.010Z,28.10
2018-08-23T19:47:04.557Z,28.00
2018-08-23T19:52:07.824Z,28.00
2018-08-23T19:57:11.038Z,27.90
2018-08-23T20:02:14.070Z,27.70
2018-08-23T20:07:17.187Z,27.60
2018-08-23T20:12:20.416Z,27.50
2018-08-23T20:17:23.603Z,27.40
2018-08-23T20:22:26.739Z,27.30
2018-08-23T20:27:29.806Z,27.30
2018-08-23T20:32:32.918Z,27.20
2018-08-23T20:37:36.018Z,27.00
2018-08-23T20:42:39.224Z,26.90
2018-08-23T20:47:42.326Z,26.80
2018-08-23T20:52:45.522Z,26.70
2018-08-23T20:57:48.730Z,26.60
2018-08-23T21:02:51.891Z,26.50
2018-08-23T21:07:55.046Z,26.40
2018-08-23T21:12:58.242Z,26.30
2018-08-23T21:18:01.450Z,26.20
2018-08-23T21:23:04.571Z,26.20
2018-08-23T21:28:07.863Z,26.10
2018-08-23T21:33:11.280Z,26.10
2018-08-23T21:38:14.444Z,26.00
2018-08-23T21:43:17.496Z,26.00
2018-08-23T21:48:20.671Z,26.00
2018-08-23T21:53:23.770Z,26.00
2018-08-23T21:58:27.053Z,26.00
2018-08-23T22:03:30.102Z,25.90
2018-08-23T22:14:01.002Z,25.70
2018-08-23T22:19:04.141Z,25.60
2018-08-23T22:24:08.126Z,25.60
2018-08-23T22:29:11.756Z,25.50
2018-08-23T22:34:15.420Z,25.40
2018-08-23T22:39:18.899Z,25.30
2018-08-23T22:44:43.996Z,25.20
2018-08-23T22:49:47.736Z,25.20
2018-08-23T23:17:10.269Z,24.60
2018-08-23T23:56:13.547Z,23.60
